Time;durP1;ratioP1;P1;durP2;ratioP2;P2;SDS_P1;SDS_P2;PMS_P1;PMS_P2;Temp;Humidity;BMP_temperature;BMP_pressure;BME280_temperature;BME280_humidity;BME280_pressure;Samples;Min_cycle;Max_cycle;Signal;HPM_P1;HPM_P2
2021/01/15 00:01:35;;;;;;;17.35;9.38;;;-0.70;92.50;;;;;;5015336;28;20022;-95
2021/01/15 00:04:02;;;;;;;19.55;9.82;;;-0.70;92.60;;;;;;5015213;28;20044;-94
2021/01/15 00:06:28;;;;;;;18.73;9.65;;;-0.70;92.60;;;;;;5012030;28;20027;-95
2021/01/15 00:08:54;;;;;;;19.70;9.23;;;-0.70;92.50;;;;;;5007123;28;20376;-94
2021/01/15 00:11:24;;;;;;;18.80;9.35;;;-0.80;92.50;;;;;;5015017;28;20041;-94
2021/01/15 00:13:51;;;;;;;16.85;9.25;;;-0.80;92.60;;;;;;5012591;28;20513;-94
2021/01/15 00:16:43;;;;;;;17.00;7.60;;;-0.80;92.60;;;;;;5011694;28;20491;-95
2021/01/15 00:19:08;;;;;;;22.75;9.45;;;-0.80;92.60;;;;;;5013527;28;20060;-95
2021/01/15 00:21:35;;;;;;;15.30;7.93;;;-0.80;92.60;;;;;;5014728;28;20045;-95
2021/01/15 00:24:04;;;;;;;18.08;8.30;;;-0.90;92.50;;;;;;5014854;28;20737;-95
2021/01/15 00:26:30;;;;;;;19.05;9.73;;;-0.90;92.60;;;;;;5014506;28;20030;-95
2021/01/15 00:28:56;;;;;;;18.50;8.55;;;-0.90;92.60;;;;;;4995561;28;20061;-94
2021/01/15 00:31:40;;;;;;;17.38;9.38;;;-0.90;92.60;;;;;;5012950;28;20526;-94
2021/01/15 00:34:08;;;;;;;17.45;8.82;;;-0.90;92.70;;;;;;5013869;28;20057;-95
2021/01/15 00:36:34;;;;;;;19.75;8.20;;;-0.90;92.60;;;;;;5011747;28;20026;-93
2021/01/15 00:38:59;;;;;;;16.98;9.18;;;-0.90;92.60;;;;;;5014697;28;20052;-95
2021/01/15 00:41:25;;;;;;;14.90;7.68;;;-0.90;92.50;;;;;;5013946;28;20030;-94
2021/01/15 00:43:50;;;;;;;18.27;9.05;;;-1.00;92.50;;;;;;5013643;28;20030;-94
2021/01/15 00:46:27;;;;;;;20.20;7.78;;;-1.00;92.60;;;;;;5013975;28;20029;-94
2021/01/15 00:48:54;;;;;;;15.70;8.07;;;-1.00;92.60;;;;;;5012571;28;20090;-95
2021/01/15 00:51:19;;;;;;;16.08;8.43;;;-0.90;92.60;;;;;;5014462;28;20026;-94
2021/01/15 00:53:45;;;;;;;15.85;7.88;;;-0.90;92.60;;;;;;5010443;28;20541;-94
2021/01/15 00:56:10;;;;;;;16.33;8.60;;;-1.00;92.80;;;;;;5012947;28;20056;-94
2021/01/15 00:58:36;;;;;;;17.17;7.85;;;-1.00;92.60;;;;;;5013409;28;20030;-94
2021/01/15 01:01:01;;;;;;;18.77;9.60;;;-1.00;92.60;;;;;;5014488;28;20017;-93
2021/01/15 01:03:27;;;;;;;15.25;7.35;;;-1.00;92.60;;;;;;5013895;28;20553;-94
2021/01/15 01:05:52;;;;;;;14.85;8.35;;;-0.90;92.60;;;;;;5030880;28;20022;-93
2021/01/15 01:08:18;;;;;;;15.90;8.55;;;-0.90;92.60;;;;;;5012514;28;20500;-94
2021/01/15 01:10:43;;;;;;;16.65;8.55;;;-0.90;92.60;;;;;;5009584;28;20018;-94
2021/01/15 01:13:09;;;;;;;15.70;7.88;;;-0.80;92.60;;;;;;5013373;28;20036;-94
2021/01/15 01:15:34;;;;;;;20.17;8.98;;;-0.80;92.60;;;;;;5013733;28;20028;-96
2021/01/15 01:18:00;;;;;;;14.75;8.05;;;-0.80;92.50;;;;;;5010076;28;20091;-94
2021/01/15 01:20:25;;;;;;;17.75;8.95;;;-0.70;92.50;;;;;;5012496;28;20545;-94
2021/01/15 01:22:51;;;;;;;14.90;7.70;;;-0.70;92.40;;;;;;5013209;28;20489;-94
2021/01/15 01:25:17;;;;;;;16.17;8.35;;;-0.70;92.30;;;;;;5011612;28;20376;-94
2021/01/15 01:27:44;;;;;;;14.35;7.35;;;-0.60;92.40;;;;;;5013749;28;20457;-94
2021/01/15 01:30:12;;;;;;;14.63;7.82;;;-0.50;92.30;;;;;;5014848;28;20033;-94
2021/01/15 01:32:38;;;;;;;19.98;8.70;;;-0.50;92.20;;;;;;5013341;28;20029;-95
2021/01/15 01:35:05;;;;;;;14.63;7.70;;;-0.40;92.20;;;;;;5013192;28;20018;-94
2021/01/15 01:37:30;;;;;;;14.23;8.57;;;-0.40;92.10;;;;;;5013004;28;20022;-95
2021/01/15 01:39:56;;;;;;;16.02;8.48;;;-0.30;92.10;;;;;;5014002;28;20021;-94
2021/01/15 01:42:21;;;;;;;14.40;6.65;;;-0.30;92.00;;;;;;5013195;28;20394;-94
2021/01/15 01:44:47;;;;;;;15.63;7.80;;;-0.30;91.90;;;;;;5013113;28;20052;-94
2021/01/15 01:47:12;;;;;;;15.40;8.95;;;-0.20;91.90;;;;;;5011048;28;20057;-94
2021/01/15 01:49:38;;;;;;;14.90;7.35;;;-0.20;91.80;;;;;;5014000;28;20486;-95
2021/01/15 01:52:05;;;;;;;15.10;7.90;;;-0.20;91.80;;;;;;5014240;28;20026;-94
2021/01/15 01:54:35;;;;;;;12.00;6.93;;;-0.20;91.70;;;;;;5012937;28;20033;-95
2021/01/15 01:57:02;;;;;;;14.15;7.90;;;-0.10;91.60;;;;;;5013761;28;20022;-94
2021/01/15 01:59:28;;;;;;;14.48;7.35;;;-0.10;91.60;;;;;;5013892;28;20022;-95
2021/01/15 02:01:54;;;;;;;13.38;7.18;;;-0.10;91.50;;;;;;5013606;28;20112;-94
2021/01/15 02:04:20;;;;;;;14.80;7.93;;;0.00;91.40;;;;;;5012949;28;20029;-95
2021/01/15 02:06:45;;;;;;;14.52;7.20;;;0.00;91.30;;;;;;5013222;28;20509;-95
2021/01/15 02:09:11;;;;;;;16.05;7.85;;;0.00;91.30;;;;;;5012565;28;20121;-95
2021/01/15 02:11:49;;;;;;;13.80;7.93;;;0.10;91.20;;;;;;5012378;28;20037;-95
2021/01/15 02:14:15;;;;;;;16.13;7.88;;;0.20;91.10;;;;;;5006216;28;20089;-95
2021/01/15 02:16:40;;;;;;;13.00;7.20;;;0.20;91.10;;;;;;5013700;28;20037;-95
2021/01/15 02:19:41;;;;;;;15.82;7.07;;;0.30;91.00;;;;;;5012923;28;20053;-95
2021/01/15 02:22:23;;;;;;;12.73;6.93;;;0.40;90.80;;;;;;5014029;28;20069;-96
2021/01/15 02:24:57;;;;;;;12.30;7.00;;;0.40;90.80;;;;;;5009641;28;20037;-96
2021/01/15 02:28:01;;;;;;;12.50;7.20;;;0.40;90.80;;;;;;5013893;28;20033;-95
2021/01/15 02:30:50;;;;;;;13.02;6.82;;;0.40;90.70;;;;;;5003396;28;20042;-95
2021/01/15 02:33:40;;;;;;;13.38;7.30;;;0.40;90.70;;;;;;5011747;28;20040;-95
2021/01/15 02:36:31;;;;;;;13.45;6.90;;;0.50;90.70;;;;;;4996192;28;20026;-95
2021/01/15 02:39:03;;;;;;;11.50;6.32;;;0.40;90.60;;;;;;5002387;28;20029;-95
2021/01/15 02:41:29;;;;;;;12.77;6.93;;;0.50;90.60;;;;;;5006197;28;20034;-95
2021/01/15 02:44:02;;;;;;;13.05;6.30;;;0.50;90.60;;;;;;5009725;28;20021;-95
2021/01/15 02:46:53;;;;;;;13.52;6.88;;;0.50;90.60;;;;;;5008783;28;20030;-95
2021/01/15 02:49:19;;;;;;;14.20;6.45;;;0.50;90.50;;;;;;5008241;28;20375;-95
2021/01/15 02:51:45;;;;;;;13.40;7.38;;;0.50;90.50;;;;;;5014610;28;20022;-95
2021/01/15 02:54:11;;;;;;;13.60;7.40;;;0.50;90.40;;;;;;5017636;28;20075;-95
2021/01/15 02:56:37;;;;;;;15.15;7.82;;;0.60;90.40;;;;;;5012285;28;20108;-94
2021/01/15 02:59:06;;;;;;;14.88;8.35;;;0.60;90.40;;;;;;5016314;28;20033;-94
2021/01/15 03:01:41;;;;;;;15.75;7.57;;;0.60;90.40;;;;;;5010682;28;20031;-93
2021/01/15 03:04:32;;;;;;;14.73;7.80;;;0.60;90.40;;;;;;5010384;28;20030;-95
2021/01/15 03:07:01;;;;;;;12.80;7.07;;;0.60;90.30;;;;;;5009565;28;20064;-94
2021/01/15 03:09:31;;;;;;;13.68;6.97;;;0.60;90.30;;;;;;5013288;28;20097;-95
2021/01/15 03:11:59;;;;;;;12.27;7.25;;;0.60;90.30;;;;;;5017378;28;20470;-95
2021/01/15 03:14:27;;;;;;;15.93;7.30;;;0.60;90.30;;;;;;5016829;28;20560;-95
2021/01/15 03:16:54;;;;;;;16.45;7.13;;;0.60;90.30;;;;;;5017286;28;20041;-95
2021/01/15 03:19:20;;;;;;;11.70;6.85;;;0.60;90.30;;;;;;5016270;28;20116;-94
2021/01/15 03:21:50;;;;;;;15.13;8.25;;;0.60;90.30;;;;;;5017569;28;20417;-94
2021/01/15 03:24:16;;;;;;;12.27;7.32;;;0.60;90.30;;;;;;5017598;28;20022;-96
2021/01/15 03:26:41;;;;;;;16.35;8.55;;;0.60;90.30;;;;;;5016101;28;20028;-93
2021/01/15 03:29:13;;;;;;;14.38;8.13;;;0.60;90.30;;;;;;5016590;28;20375;-94
2021/01/15 03:31:40;;;;;;;11.68;7.60;;;0.60;90.30;;;;;;5017202;28;20022;-95
2021/01/15 03:34:05;;;;;;;11.88;7.78;;;0.60;90.20;;;;;;5016489;28;20121;-95
2021/01/15 03:36:30;;;;;;;13.50;7.63;;;0.70;90.20;;;;;;5017291;28;20104;-94
2021/01/15 03:38:56;;;;;;;14.93;8.23;;;0.70;90.20;;;;;;5016766;28;20041;-95
2021/01/15 03:41:22;;;;;;;15.75;8.40;;;0.70;90.10;;;;;;5017295;28;20109;-94
2021/01/15 03:43:47;;;;;;;17.13;8.27;;;0.70;90.20;;;;;;5016600;28;20034;-94
2021/01/15 03:46:17;;;;;;;15.57;7.30;;;0.70;90.10;;;;;;5016929;28;20034;-96
2021/01/15 03:48:42;;;;;;;13.23;7.75;;;0.70;90.10;;;;;;5016705;28;20449;-96
2021/01/15 03:51:08;;;;;;;15.55;8.02;;;0.60;90.10;;;;;;5017038;28;20026;-95
2021/01/15 03:53:33;;;;;;;14.15;8.02;;;0.60;90.20;;;;;;5018557;28;20030;-95
2021/01/15 03:55:59;;;;;;;13.95;8.13;;;0.60;90.20;;;;;;5017970;28;20191;-95
2021/01/15 03:58:24;;;;;;;14.30;7.22;;;0.60;90.20;;;;;;5016654;28;20034;-95
2021/01/15 04:00:50;;;;;;;11.07;7.05;;;0.70;90.20;;;;;;5018617;28;20033;-95
2021/01/15 04:03:15;;;;;;;14.30;8.27;;;0.70;90.20;;;;;;5017441;28;20547;-94
2021/01/15 04:05:42;;;;;;;12.95;7.93;;;0.70;90.20;;;;;;5016634;28;20020;-95
2021/01/15 04:08:08;;;;;;;15.38;8.00;;;0.60;90.20;;;;;;5017039;28;20036;-94
2021/01/15 04:10:33;;;;;;;14.32;8.27;;;0.70;90.20;;;;;;5013889;28;20474;-95
2021/01/15 04:12:59;;;;;;;11.30;6.03;;;0.70;90.20;;;;;;5033877;28;20095;-95
2021/01/15 04:15:24;;;;;;;15.07;8.55;;;0.70;90.20;;;;;;5011686;28;20027;-95
2021/01/15 04:17:50;;;;;;;15.95;8.52;;;0.70;90.30;;;;;;5015823;28;20033;-96
2021/01/15 04:20:15;;;;;;;16.00;9.02;;;0.70;90.30;;;;;;5016821;28;20525;-95
2021/01/15 04:22:46;;;;;;;16.63;8.60;;;0.70;90.40;;;;;;5015096;28;20137;-95
2021/01/15 04:25:12;;;;;;;17.92;9.65;;;0.70;90.40;;;;;;5016002;28;20050;-95
2021/01/15 04:27:39;;;;;;;16.08;8.93;;;0.70;90.50;;;;;;5016493;28;20038;-96
2021/01/15 04:30:06;;;;;;;14.50;8.30;;;0.70;90.50;;;;;;5013143;28;20031;-95
2021/01/15 04:32:33;;;;;;;14.20;8.70;;;0.70;90.50;;;;;;5018126;28;20520;-94
2021/01/15 04:34:59;;;;;;;17.50;9.88;;;0.70;90.50;;;;;;5025968;28;20030;-94
2021/01/15 04:37:25;;;;;;;14.68;8.57;;;0.70;90.60;;;;;;5024042;28;20482;-94
2021/01/15 04:39:51;;;;;;;17.20;9.48;;;0.70;90.60;;;;;;5025593;28;20037;-94
2021/01/15 04:42:19;;;;;;;17.25;9.55;;;0.80;90.70;;;;;;5016693;28;20093;-94
2021/01/15 04:44:47;;;;;;;16.45;9.30;;;0.70;90.60;;;;;;5033752;28;20053;-96
2021/01/15 04:47:13;;;;;;;17.17;8.93;;;0.70;90.70;;;;;;5017332;28;20025;-96
2021/01/15 04:49:39;;;;;;;18.13;9.32;;;0.80;90.70;;;;;;5016495;28;20034;-95
2021/01/15 04:52:13;;;;;;;17.58;8.15;;;0.80;90.70;;;;;;5017474;28;20033;-95
2021/01/15 04:54:41;;;;;;;16.70;8.77;;;0.80;90.80;;;;;;5026771;28;20022;-96
2021/01/15 04:57:09;;;;;;;18.48;9.20;;;0.70;90.70;;;;;;5017051;28;20036;-95
2021/01/15 04:59:54;;;;;;;16.45;9.88;;;0.80;90.80;;;;;;5018337;28;20030;-95
2021/01/15 05:02:20;;;;;;;16.00;8.52;;;0.80;90.80;;;;;;5017644;28;20486;-95
2021/01/15 05:04:46;;;;;;;18.33;10.23;;;0.80;90.80;;;;;;5016830;28;20036;-95
2021/01/15 05:07:13;;;;;;;16.63;9.20;;;0.80;90.90;;;;;;5016901;28;20065;-95
2021/01/15 05:09:41;;;;;;;17.98;7.97;;;0.80;90.80;;;;;;5012539;28;20037;-95
2021/01/15 05:12:15;;;;;;;19.40;9.40;;;0.80;90.90;;;;;;5017519;28;20018;-95
2021/01/15 05:14:42;;;;;;;17.20;8.68;;;0.80;90.90;;;;;;5022430;28;20379;-94
2021/01/15 05:17:08;;;;;;;17.02;8.15;;;0.80;90.90;;;;;;5015403;28;20026;-95
2021/01/15 05:19:40;;;;;;;18.27;9.93;;;0.80;91.00;;;;;;5012077;28;20174;-95
2021/01/15 05:22:10;;;;;;;16.50;9.88;;;0.80;91.00;;;;;;5000327;28;20033;-95
2021/01/15 05:24:36;;;;;;;19.77;10.07;;;0.80;91.00;;;;;;5018367;28;20056;-95
2021/01/15 05:27:38;;;;;;;16.92;9.20;;;0.80;91.00;;;;;;5014314;28;20078;-95
2021/01/15 05:30:17;;;;;;;16.58;8.50;;;0.80;91.00;;;;;;5017959;28;20026;-95
2021/01/15 05:32:44;;;;;;;16.83;8.82;;;0.80;91.00;;;;;;5016427;28;20050;-96
2021/01/15 05:35:10;;;;;;;17.63;9.75;;;0.80;91.00;;;;;;5014100;28;20702;-96
2021/01/15 05:37:36;;;;;;;15.65;9.02;;;0.80;91.10;;;;;;5012579;28;20030;-96
2021/01/15 05:40:03;;;;;;;14.98;8.95;;;0.80;91.10;;;;;;5016821;28;20033;-95
2021/01/15 05:42:29;;;;;;;17.83;10.52;;;0.80;91.10;;;;;;5032781;28;20108;-96
2021/01/15 05:45:16;;;;;;;15.85;9.27;;;0.80;91.10;;;;;;5015687;28;20052;-96
2021/01/15 05:47:45;;;;;;;18.33;10.07;;;0.80;91.10;;;;;;5015691;28;20030;-96
2021/01/15 05:50:14;;;;;;;17.15;9.38;;;0.80;91.10;;;;;;5006451;28;20034;-96
2021/01/15 05:52:58;;;;;;;19.50;9.98;;;0.80;91.10;;;;;;5015991;28;20026;-96
2021/01/15 05:55:26;;;;;;;19.60;9.65;;;0.80;91.10;;;;;;5016544;28;20036;-96
2021/01/15 05:57:52;;;;;;;18.08;10.20;;;0.80;91.20;;;;;;5017145;28;20057;-96
2021/01/15 06:00:29;;;;;;;20.55;9.65;;;0.80;91.20;;;;;;5014544;28;20022;-96
2021/01/15 06:02:56;;;;;;;18.30;9.77;;;0.80;91.20;;;;;;5015559;28;20029;-96
2021/01/15 06:05:24;;;;;;;17.60;9.68;;;0.80;91.20;;;;;;5012291;28;20022;-96
2021/01/15 06:07:56;;;;;;;20.00;9.98;;;0.80;91.20;;;;;;5009538;28;20038;-95
2021/01/15 06:10:23;;;;;;;19.10;9.95;;;0.80;91.30;;;;;;5024452;28;20117;-95
2021/01/15 06:12:50;;;;;;;18.20;10.50;;;0.80;91.30;;;;;;5025024;28;20061;-96
2021/01/15 06:15:16;;;;;;;17.90;9.35;;;0.80;91.30;;;;;;5012772;28;20503;-95
2021/01/15 06:17:41;;;;;;;19.98;10.45;;;0.90;91.30;;;;;;5011804;28;20032;-95
2021/01/15 06:20:08;;;;;;;22.23;10.93;;;0.90;91.40;;;;;;5015800;28;20073;-95
2021/01/15 06:22:44;;;;;;;19.73;10.80;;;0.90;91.40;;;;;;5015576;28;20172;-95
2021/01/15 06:25:34;;;;;;;19.23;10.45;;;0.90;91.40;;;;;;5007547;28;20026;-95
2021/01/15 06:28:04;;;;;;;20.20;10.60;;;0.90;91.40;;;;;;5015183;28;20041;-95
2021/01/15 06:30:35;;;;;;;21.48;10.95;;;0.80;91.40;;;;;;5031202;28;20053;-96
2021/01/15 06:33:14;;;;;;;20.48;10.35;;;0.90;91.40;;;;;;5012982;28;20108;-96
2021/01/15 06:35:46;;;;;;;19.33;10.75;;;0.90;91.40;;;;;;5015203;28;20056;-96
2021/01/15 06:38:20;;;;;;;20.08;10.30;;;0.90;91.40;;;;;;5015086;28;20533;-95
2021/01/15 06:40:50;;;;;;;19.08;10.15;;;0.90;91.40;;;;;;5014647;28;20116;-96
2021/01/15 06:43:31;;;;;;;19.92;10.15;;;0.90;91.40;;;;;;5013929;28;20036;-96
2021/01/15 06:46:04;;;;;;;19.85;9.70;;;0.90;91.40;;;;;;5015291;28;20026;-96
2021/01/15 06:48:34;;;;;;;19.05;10.60;;;0.90;91.40;;;;;;5024677;28;20158;-96
2021/01/15 06:51:01;;;;;;;19.35;10.15;;;0.90;91.50;;;;;;5017820;28;20084;-96
2021/01/15 06:53:29;;;;;;;21.42;11.30;;;0.90;91.50;;;;;;5009034;28;20438;-95
2021/01/15 06:55:56;;;;;;;20.80;10.52;;;0.90;91.50;;;;;;5017801;28;20041;-94
2021/01/15 06:58:27;;;;;;;20.17;10.88;;;0.90;91.60;;;;;;5008903;28;20026;-94
2021/01/15 07:01:17;;;;;;;19.88;10.85;;;0.90;91.60;;;;;;5013425;28;20022;-94
2021/01/15 07:04:01;;;;;;;18.05;10.30;;;0.90;91.60;;;;;;5013678;28;20026;-95
2021/01/15 07:06:37;;;;;;;20.77;11.63;;;0.90;91.60;;;;;;5000860;28;20513;-95
2021/01/15 07:09:08;;;;;;;24.15;11.20;;;0.90;91.60;;;;;;5013801;28;20034;-93
2021/01/15 07:11:39;;;;;;;20.25;11.48;;;0.90;91.60;;;;;;5012788;28;20026;-96
2021/01/15 07:14:05;;;;;;;24.83;12.10;;;0.90;91.60;;;;;;5014809;28;20092;-96
2021/01/15 07:16:36;;;;;;;26.75;11.68;;;0.90;91.70;;;;;;5014827;28;20033;-95
2021/01/15 07:19:05;;;;;;;24.25;11.57;;;0.90;91.60;;;;;;5017208;28;20029;-96
2021/01/15 07:21:36;;;;;;;23.42;11.43;;;0.90;91.70;;;;;;5016902;28;20048;-95
2021/01/15 07:24:09;;;;;;;26.90;12.95;;;0.90;91.70;;;;;;5018160;28;20471;-95
2021/01/15 07:26:41;;;;;;;26.88;13.40;;;0.90;91.80;;;;;;5017951;28;20041;-95
2021/01/15 07:29:14;;;;;;;25.38;12.02;;;0.90;91.80;;;;;;5013369;28;20065;-96
2021/01/15 07:31:44;;;;;;;20.83;10.73;;;0.90;91.80;;;;;;5029837;28;20057;-95
2021/01/15 07:34:18;;;;;;;24.58;12.15;;;0.90;91.80;;;;;;5027660;28;20034;-96
2021/01/15 07:36:44;;;;;;;25.65;12.80;;;0.90;91.80;;;;;;5023687;28;20480;-96
2021/01/15 07:39:13;;;;;;;24.77;11.88;;;0.90;91.80;;;;;;5023095;28;20056;-96
2021/01/15 07:41:52;;;;;;;24.33;10.85;;;0.90;91.80;;;;;;5030110;28;20002;-95
2021/01/15 07:44:21;;;;;;;21.63;10.93;;;0.90;91.90;;;;;;5006345;28;20522;-95
2021/01/15 07:46:47;;;;;;;24.38;13.10;;;0.90;91.90;;;;;;5017170;28;20053;-90
2021/01/15 07:49:13;;;;;;;24.38;12.85;;;0.90;91.90;;;;;;5019543;28;20033;-96
2021/01/15 07:51:39;;;;;;;25.98;12.60;;;0.90;91.90;;;;;;5020470;28;20098;-96
2021/01/15 07:54:04;;;;;;;23.13;12.38;;;1.00;91.90;;;;;;5023066;28;20058;-96
2021/01/15 07:56:31;;;;;;;24.13;12.73;;;1.00;91.90;;;;;;5021204;28;20029;-92
2021/01/15 07:58:58;;;;;;;25.65;12.93;;;1.00;92.00;;;;;;5019891;28;20116;-96
2021/01/15 08:01:25;;;;;;;24.40;12.55;;;1.00;92.00;;;;;;5030887;28;20010;-96
2021/01/15 08:04:00;;;;;;;25.60;13.70;;;1.00;92.00;;;;;;5032744;28;20030;-96
2021/01/15 08:06:28;;;;;;;27.23;14.40;;;1.00;92.00;;;;;;5032817;28;20025;-95
2021/01/15 08:09:07;;;;;;;27.10;13.93;;;1.00;92.00;;;;;;5023365;28;20040;-95
2021/01/15 08:11:36;;;;;;;22.25;11.10;;;1.00;92.00;;;;;;5041764;28;20026;-96
2021/01/15 08:14:23;;;;;;;27.52;13.73;;;1.00;92.00;;;;;;5034069;28;20105;-96
2021/01/15 08:16:49;;;;;;;28.80;13.70;;;1.00;92.00;;;;;;5009466;28;20062;-94
2021/01/15 08:19:23;;;;;;;30.00;13.63;;;1.10;92.10;;;;;;5038489;28;20047;-94
2021/01/15 08:21:49;;;;;;;26.67;14.80;;;1.10;92.00;;;;;;5028216;28;20513;-96
2021/01/15 08:24:17;;;;;;;25.17;13.85;;;1.10;92.00;;;;;;5029117;28;20026;-96
2021/01/15 08:26:56;;;;;;;29.95;16.00;;;1.10;92.10;;;;;;5032062;28;20053;-96
2021/01/15 08:29:44;;;;;;;29.02;15.48;;;1.10;92.10;;;;;;5047736;28;20038;-96
2021/01/15 08:32:16;;;;;;;31.37;15.60;;;1.20;92.10;;;;;;5032182;28;20042;-95
2021/01/15 08:34:44;;;;;;;32.33;16.58;;;1.10;92.10;;;;;;5026851;28;20113;-94
2021/01/15 08:37:21;;;;;;;33.90;17.40;;;1.20;92.10;;;;;;5016862;28;20026;-96
2021/01/15 08:39:48;;;;;;;30.25;15.52;;;1.20;92.10;;;;;;5006769;28;20045;-96
2021/01/15 08:42:17;;;;;;;29.48;15.90;;;1.20;92.10;;;;;;5026823;28;20034;-96
2021/01/15 08:44:46;;;;;;;32.03;15.98;;;1.20;92.10;;;;;;5026419;28;20026;-96
2021/01/15 08:47:13;;;;;;;29.25;15.85;;;1.20;92.10;;;;;;5047331;28;20060;-96
2021/01/15 08:49:53;;;;;;;28.98;15.80;;;1.20;92.10;;;;;;5029590;28;20050;-96
2021/01/15 08:52:26;;;;;;;28.73;14.90;;;1.20;92.20;;;;;;5032044;28;20022;-96
2021/01/15 08:54:53;;;;;;;33.10;16.75;;;1.20;92.20;;;;;;5029824;28;20093;-95
2021/01/15 08:57:29;;;;;;;28.70;14.70;;;1.30;92.30;;;;;;5034127;28;20014;-94
2021/01/15 08:59:55;;;;;;;30.98;15.05;;;1.30;92.20;;;;;;5027016;28;20097;-96
2021/01/15 09:02:22;;;;;;;27.63;14.68;;;1.30;92.20;;;;;;5018393;28;20058;-94
2021/01/15 09:04:50;;;;;;;29.60;14.95;;;1.30;92.20;;;;;;5023583;28;20045;-95
2021/01/15 09:07:17;;;;;;;27.85;14.50;;;1.30;92.20;;;;;;5020009;28;20022;-94
2021/01/15 09:09:47;;;;;;;28.98;14.95;;;1.30;92.20;;;;;;5016007;28;20061;-96
2021/01/15 09:12:22;;;;;;;30.63;14.10;;;1.30;92.20;;;;;;5032984;28;20037;-96
2021/01/15 09:14:53;;;;;;;27.98;14.10;;;1.40;92.30;;;;;;5031476;28;20083;-95
2021/01/15 09:17:27;;;;;;;34.17;15.00;;;1.40;92.30;;;;;;5030777;28;20084;-96
2021/01/15 09:19:53;;;;;;;30.38;14.75;;;1.50;92.30;;;;;;5034146;28;20041;-94
2021/01/15 09:22:19;;;;;;;31.20;13.82;;;1.50;92.30;;;;;;5028843;28;20034;-94
2021/01/15 09:24:44;;;;;;;29.13;14.60;;;1.50;92.20;;;;;;5024153;28;20037;-94
2021/01/15 09:27:10;;;;;;;27.67;14.43;;;1.50;92.20;;;;;;5024591;28;20018;-94
2021/01/15 09:29:38;;;;;;;28.23;14.55;;;1.60;92.20;;;;;;5030376;28;20486;-86
2021/01/15 09:32:04;;;;;;;29.05;14.15;;;1.60;92.20;;;;;;5029577;28;20085;-87
2021/01/15 09:34:30;;;;;;;25.88;13.18;;;1.60;92.20;;;;;;5030364;28;20453;-96
2021/01/15 09:36:56;;;;;;;26.15;13.95;;;1.60;92.20;;;;;;5011010;28;20026;-94
2021/01/15 09:39:24;;;;;;;26.40;14.13;;;1.60;92.10;;;;;;5013473;28;20087;-95
2021/01/15 09:41:57;;;;;;;24.63;12.88;;;1.60;92.10;;;;;;5026896;28;20218;-95
2021/01/15 09:44:25;;;;;;;28.23;14.15;;;1.60;92.10;;;;;;5019220;28;20026;-94
2021/01/15 09:46:59;;;;;;;27.88;13.65;;;1.60;92.00;;;;;;5026163;28;20061;-96
2021/01/15 09:49:25;;;;;;;29.10;12.85;;;1.60;92.00;;;;;;5034281;28;20098;-96
2021/01/15 09:51:51;;;;;;;24.17;13.73;;;1.60;92.00;;;;;;5036430;28;20029;-96
2021/01/15 09:54:18;;;;;;;25.15;12.80;;;1.60;92.00;;;;;;5039803;23;20014;-70
2021/01/15 09:56:44;;;;;;;27.38;14.15;;;1.60;92.00;;;;;;5034253;28;20030;-70
2021/01/15 09:59:15;;;;;;;26.13;13.68;;;1.60;92.00;;;;;;5026473;28;20101;-70
2021/01/15 10:01:41;;;;;;;25.13;13.55;;;1.60;92.00;;;;;;5007283;28;20040;-70
2021/01/15 10:04:07;;;;;;;23.33;13.55;;;1.60;92.00;;;;;;5010984;28;20376;-70
2021/01/15 10:06:37;;;;;;;27.63;13.18;;;1.70;92.00;;;;;;5014646;28;20029;-69
2021/01/15 10:09:04;;;;;;;25.88;13.27;;;1.70;92.00;;;;;;5018898;28;20478;-70
2021/01/15 10:11:32;;;;;;;22.70;12.50;;;1.70;92.00;;;;;;5013116;28;20137;-70
2021/01/15 10:14:02;;;;;;;27.25;13.73;;;1.70;92.00;;;;;;5014684;28;20164;-69
2021/01/15 10:16:29;;;;;;;25.48;12.85;;;1.70;92.00;;;;;;5011651;28;20037;-71
2021/01/15 10:18:56;;;;;;;26.27;13.63;;;1.70;91.90;;;;;;5012267;28;20030;-70
2021/01/15 10:21:23;;;;;;;27.45;13.60;;;1.80;91.90;;;;;;5010517;28;20040;-70
2021/01/15 10:23:51;;;;;;;33.33;14.40;;;1.70;91.90;;;;;;5012619;28;20080;-70
2021/01/15 10:26:37;;;;;;;23.85;13.15;;;1.80;91.90;;;;;;5008754;28;20030;-70
2021/01/15 10:29:06;;;;;;;26.52;13.43;;;1.80;91.90;;;;;;5001269;28;20476;-69
2021/01/15 10:31:41;;;;;;;21.60;12.60;;;1.80;91.80;;;;;;5008111;28;20032;-69
2021/01/15 10:34:06;;;;;;;28.90;13.70;;;1.80;91.80;;;;;;5012015;28;20041;-69
2021/01/15 10:36:32;;;;;;;25.35;14.32;;;1.80;91.80;;;;;;5008393;28;20116;-70
2021/01/15 10:38:57;;;;;;;25.67;13.32;;;1.90;91.90;;;;;;5011165;28;20029;-69
2021/01/15 10:41:37;;;;;;;23.38;13.25;;;1.90;91.80;;;;;;5012917;28;20041;-69
2021/01/15 10:44:05;;;;;;;23.33;11.70;;;1.90;91.70;;;;;;5010104;28;20030;-69
2021/01/15 10:46:39;;;;;;;22.73;13.00;;;1.90;91.80;;;;;;5011253;28;20106;-69
2021/01/15 10:49:12;;;;;;;24.80;12.95;;;1.90;91.80;;;;;;5010275;28;20049;-68
2021/01/15 10:51:45;;;;;;;26.00;13.25;;;2.00;91.80;;;;;;5004514;28;20018;-68
2021/01/15 10:54:11;;;;;;;24.95;13.70;;;2.00;91.70;;;;;;5012361;28;20037;-68
2021/01/15 10:56:38;;;;;;;26.00;13.48;;;2.00;91.70;;;;;;5007244;28;20030;-69
2021/01/15 10:59:04;;;;;;;23.05;12.52;;;2.00;91.70;;;;;;5010916;28;20121;-69
2021/01/15 11:01:37;;;;;;;24.05;12.98;;;2.10;91.70;;;;;;5009860;28;20495;-69
2021/01/15 11:04:06;;;;;;;26.30;13.48;;;2.10;91.60;;;;;;5011658;28;20041;-69
2021/01/15 11:06:31;;;;;;;24.63;13.18;;;2.20;91.60;;;;;;4995150;28;20030;-69
2021/01/15 11:08:57;;;;;;;26.70;13.70;;;2.20;91.50;;;;;;4993353;28;20444;-69
2021/01/15 11:11:22;;;;;;;22.70;13.02;;;2.20;91.50;;;;;;5007712;28;20028;-70
2021/01/15 11:13:48;;;;;;;22.88;12.80;;;2.20;91.40;;;;;;5000263;28;20401;-70
2021/01/15 11:16:14;;;;;;;25.73;13.20;;;2.20;91.40;;;;;;5010904;28;20030;-70
2021/01/15 11:18:41;;;;;;;21.88;12.35;;;2.30;91.30;;;;;;4998437;28;20030;-69
2021/01/15 11:21:07;;;;;;;22.13;12.20;;;2.30;91.30;;;;;;5013077;28;20026;-70
2021/01/15 11:23:32;;;;;;;22.92;12.15;;;2.30;91.30;;;;;;5009494;28;20428;-70
2021/01/15 11:25:58;;;;;;;24.00;13.10;;;2.30;91.30;;;;;;5015161;28;20117;-69
2021/01/15 11:28:24;;;;;;;23.02;12.77;;;2.30;91.20;;;;;;5014214;28;20080;-70
2021/01/15 11:30:49;;;;;;;21.33;12.43;;;2.30;91.20;;;;;;5013587;28;20055;-70
2021/01/15 11:33:15;;;;;;;23.60;12.13;;;2.40;91.20;;;;;;5014913;28;20045;-70
2021/01/15 11:35:41;;;;;;;20.23;12.75;;;2.40;91.10;;;;;;5001082;28;20031;-70
2021/01/15 11:38:06;;;;;;;23.35;12.48;;;2.50;91.10;;;;;;5006587;28;20037;-70
2021/01/15 11:40:32;;;;;;;23.45;12.82;;;2.40;91.00;;;;;;5015168;28;20105;-69
2021/01/15 11:42:58;;;;;;;23.75;13.23;;;2.50;91.00;;;;;;5011300;28;20034;-70
2021/01/15 11:45:24;;;;;;;22.85;13.68;;;2.50;90.90;;;;;;5013341;28;20026;-70
2021/01/15 11:47:51;;;;;;;23.48;13.13;;;2.50;90.80;;;;;;5012086;28;20048;-70
2021/01/15 11:50:17;;;;;;;23.08;11.82;;;2.50;90.80;;;;;;5010753;28;20018;-70
2021/01/15 11:52:43;;;;;;;21.88;12.45;;;2.60;90.70;;;;;;5011934;28;20030;-70
2021/01/15 11:55:09;;;;;;;21.08;11.98;;;2.60;90.70;;;;;;5015560;28;20464;-70
2021/01/15 11:57:34;;;;;;;25.90;13.07;;;2.60;90.60;;;;;;5014049;28;20022;-70
2021/01/15 12:00:00;;;;;;;23.95;13.00;;;2.60;90.60;;;;;;5015589;28;20068;-69
2021/01/15 12:02:29;;;;;;;22.60;12.88;;;2.60;90.50;;;;;;5009641;28;20443;-71
2021/01/15 12:04:54;;;;;;;24.40;13.30;;;2.60;90.40;;;;;;5014333;28;20072;-68
2021/01/15 12:07:20;;;;;;;26.00;13.27;;;2.60;90.40;;;;;;5012173;28;20022;-69
2021/01/15 12:09:45;;;;;;;22.50;13.10;;;2.60;90.40;;;;;;5015220;28;20033;-69
2021/01/15 12:12:11;;;;;;;22.83;13.00;;;2.60;90.30;;;;;;5011568;28;20126;-69
2021/01/15 12:14:36;;;;;;;23.50;13.70;;;2.60;90.30;;;;;;5015495;28;20464;-69
2021/01/15 12:17:02;;;;;;;19.55;12.27;;;2.60;90.30;;;;;;5012733;28;20029;-69
2021/01/15 12:19:27;;;;;;;24.17;13.48;;;2.60;90.20;;;;;;5012299;28;20117;-69
2021/01/15 12:21:53;;;;;;;24.90;12.65;;;2.60;90.30;;;;;;5004973;28;20026;-69
2021/01/15 12:24:20;;;;;;;27.70;13.57;;;2.60;90.20;;;;;;5004151;28;20467;-69
2021/01/15 12:26:46;;;;;;;21.70;13.23;;;2.60;90.20;;;;;;5013531;28;20062;-69
2021/01/15 12:29:12;;;;;;;24.50;13.52;;;2.60;90.30;;;;;;5014881;28;20029;-70
2021/01/15 12:31:37;;;;;;;19.58;12.05;;;2.60;90.20;;;;;;5009220;28;20364;-70
2021/01/15 12:34:03;;;;;;;26.15;13.50;;;2.70;90.20;;;;;;5014330;28;20104;-69
2021/01/15 12:36:29;;;;;;;23.85;13.27;;;2.60;90.10;;;;;;5014852;28;20054;-70
2021/01/15 12:38:54;;;;;;;24.60;13.35;;;2.70;90.10;;;;;;5007180;28;20603;-70
2021/01/15 12:41:20;;;;;;;25.48;13.85;;;2.70;90.00;;;;;;5013882;28;20030;-70
2021/01/15 12:43:46;;;;;;;23.17;13.85;;;2.70;90.00;;;;;;5014185;28;20456;-70
2021/01/15 12:46:12;;;;;;;23.08;12.57;;;2.70;89.80;;;;;;5012852;28;20030;-69
2021/01/15 12:48:38;;;;;;;21.55;13.10;;;2.60;89.60;;;;;;5013293;28;20772;-69
2021/01/15 12:51:07;;;;;;;26.08;13.00;;;2.70;89.70;;;;;;5014501;28;20028;-70